Terminal Aerodrome Forecast
Issued by NWS

Home | Current Version | Previous Version | Text Only | Print | Product List | Glossary On
Versions: 1 2 3 4 5 6 7 8 9 10 11 12
000
FTUS45 KTFX 192329
TAFLWT
TAF
KLWT 192329Z 2000/2024 29012KT P6SM VCSH SCT050 BKN090
      TEMPO 2000/2004 -SHRA BKN035
     FM200800 24011G19KT P6SM SCT040 BKN200
     FM201800 26015G22KT P6SM BKN060=

USA.gov is the U.S. government's official web portal to all federal, state and local government web resources and services.